Flight Track Log - Related Links

Times and Time Zones

All times are in EST time to prevent confusion due to time zone crossing. See the EJA749 flight status page for this flight to view local times or setup timezone preferences in your user account.

Time Position Orientation Groundspeed Altitude Reporting Facility
EST Latitude Longitude Course Direction KTS MPH feet Rate Location/Type
03:21PM 27.2103 -81.9686 North 298 343 14,200  Level Miami Center
03:22PM 27.3003 -81.9561 North 319 367 16,800 2,350 Climbing Miami Center
03:23PM 27.3939 -81.9089 24° Northeast 336 387 18,900 2,200 Climbing Miami Center
03:24PM 27.5128 -81.8508 23° Northeast 393 452 21,200 2,150 Climbing Miami Center
03:25PM 27.6231 -81.7972 23° Northeast 417 480 23,200 1,950 Climbing Miami Center
03:26PM 27.7378 -81.7436 22° Northeast 434 499 25,100 1,950 Climbing Miami Center
03:27PM 27.8569 -81.7322 North 428 493 27,100 1,750 Climbing Miami Center
03:28PM 27.9803 -81.7233 North 435 501 28,600 1,300 Climbing Miami Center
03:29PM 28.1100 -81.7125 North 453 521 29,700 1,050 Climbing Miami Center
03:30PM 28.2439 -81.7017 North 464 534 30,700 1,000 Climbing Miami Center
03:31PM 28.3800 -81.6889 North 474 545 31,700 1,000 Climbing Miami Center
03:32PM 28.5181 -81.6758 North 484 557 32,700 992 Climbing Miami Center
03:33PM 28.6719 -81.6644 North 483 556 33,800 1,087 Climbing Jacksonville Center
03:34PM 28.7972 -81.6511 North 475 547 35,000 1,250 Climbing Jacksonville Center
03:35PM 28.9286 -81.6400 North 480 552 36,300 1,250 Climbing Jacksonville Center
03:36PM 29.0578 -81.6289 North 475 547 37,500 1,200 Climbing Jacksonville Center
03:37PM 29.1808 -81.6153 North 455 524 38,700 750 Climbing Jacksonville Center
03:38PM 29.3144 -81.6064 North 443 510 39,000 150 Climbing Jacksonville Center
03:39PM 29.4394 -81.5953 North 443 510 39,000  Level Jacksonville Center
03:40PM 29.5583 -81.5842 North 443 510 39,000  Level Jacksonville Center
03:41PM 29.6792 -81.5731 North 443 510 39,000  Level Jacksonville Center
03:42PM 29.8003 -81.5594 North 443 510 39,000  Level Jacksonville Center
03:43PM 29.9128 -81.5506 North 443 510 39,000  Level Jacksonville Center
03:44PM 30.0339 -81.5394 North 443 510 39,000  Level Jacksonville Center
03:45PM 30.1589 -81.5256 North 443 510 39,000  Level Jacksonville Center
03:46PM 30.2800 -81.5142 North 443 510 39,000  Level Jacksonville Center
03:47PM 30.4031 -81.5028 North 443 510 39,000  Level Jacksonville Center
03:48PM 30.5261 -81.4867 North 443 510 39,000  Level Jacksonville Center
03:49PM 30.6469 -81.4703 North 443 510 39,000  Level Jacksonville Center
03:50PM 30.7694 -81.4153 21° North 443 510 39,000  Level Jacksonville Center
03:51PM 30.8858 -81.3578 23° Northeast 454 522 39,000  Level Jacksonville Center
03:52PM 31.0042 -81.3003 23° Northeast 459 528 39,000  Level Jacksonville Center
03:53PM 31.1264 -81.2447 21° North 459 528 39,000  Level Jacksonville Center
03:54PM 31.2447 -81.1844 24° Northeast 464 534 39,000  Level Jacksonville Center
03:55PM 31.3608 -81.1239 24° Northeast 455 524 39,000  Level Jacksonville Center
03:56PM 31.4936 -81.0581 23° Northeast 455 524 39,000  Level Jacksonville Center
03:57PM 31.6136 -80.9994 23° Northeast 455 524 39,000  Level Jacksonville Center
03:58PM 31.7236 -80.9458 23° Northeast 464 534 39,000  Level Jacksonville Center
03:59PM 31.8542 -80.8797 23° Northeast 469 540 39,000  Level Jacksonville Center
04:00PM 31.9617 -80.8233 24° Northeast 469 540 39,000  Level Jacksonville Center
04:01PM 32.0964 -80.7592 22° Northeast 474 545 39,000  Level Jacksonville Center
04:02PM 32.2039 -80.7050 23° Northeast 468 539 39,000  Level Jacksonville Center
04:03PM 32.3242 -80.6456 23° Northeast 468 539 39,000  Level Jacksonville Center
04:04PM 32.4461 -80.5833 23° Northeast 468 539 39,000  Level Jacksonville Center
04:05PM 32.5661 -80.5236 23° Northeast 473 544 39,000  Level Jacksonville Center
04:06PM 32.6881 -80.4589 24° Northeast 473 544 39,000  Level Jacksonville Center
04:07PM 32.8078 -80.3989 23° Northeast 473 544 39,000  Level Jacksonville Center
04:08PM 32.9278 -80.3386 23° Northeast 473 544 39,000  Level Jacksonville Center
04:09PM 33.0578 -80.2703 24° Northeast 484 557 39,000  Level Jacksonville Center
04:10PM 33.1778 -80.2097 23° Northeast 484 557 39,000  Level Jacksonville Center
04:11PM 33.3139 -80.1411 23° Northeast 478 550 39,000  Level Jacksonville Center
04:12PM 33.4336 -80.0775 24° Northeast 471 542 39,000  Level Jacksonville Center
04:13PM 33.5533 -80.0164 23° Northeast 471 542 39,000  Level Jacksonville Center
04:14PM 33.6750 -79.9528 24° Northeast 471 542 39,000  Level Jacksonville Center
04:15PM 33.7944 -79.8886 24° Northeast 471 542 39,000  Level Jacksonville Center
04:16PM 33.9158 -79.8244 24° Northeast 471 542 39,000  Level Jacksonville Center
04:17PM 34.0333 -79.7653 23° Northeast 471 542 39,000  Level Jacksonville Center
04:19PM 34.2106 -79.6725 23° Northeast 463 533 39,000  Level Washington Center
04:20PM 34.3342 -79.6033 25° Northeast 468 539 39,000  Level Washington Center
04:21PM 34.4550 -79.5411 23° Northeast 468 539 39,000  Level Washington Center
04:22PM 34.5739 -79.4764 24° Northeast 463 533 39,000  Level Washington Center
04:23PM 34.6928 -79.4136 23° Northeast 463 533 39,000  Level Washington Center
04:24PM 34.8139 -79.3486 24° Northeast 463 533 39,000  Level Washington Center
04:25PM 34.9306 -79.2856 24° Northeast 463 533 39,000  Level Washington Center
04:26PM 35.0514 -79.2200 24° Northeast 463 533 39,000  Level Washington Center
04:27PM 35.1725 -79.1569 23° Northeast 463 533 39,000  Level Washington Center
04:28PM 35.2933 -79.0911 24° Northeast 463 533 39,000  Level Washington Center
04:29PM 35.4142 -79.0275 23° Northeast 463 533 39,000  Level Washington Center
04:30PM 35.5347 -78.9614 24° Northeast 463 533 39,000  Level Washington Center
04:31PM 35.6536 -78.8947 24° Northeast 463 533 39,000  Level Washington Center
04:32PM 35.7869 -78.8233 23° Northeast 463 533 39,000  Level Washington Center
04:33PM 35.9078 -78.7539 25° Northeast 463 533 39,000  Level Washington Center
04:34PM 36.0242 -78.6892 24° Northeast 463 533 39,000  Level Washington Center
04:35PM 36.1450 -78.6219 24° Northeast 463 533 39,000  Level Washington Center
04:36PM 36.2614 -78.5569 24° Northeast 463 533 39,000  Level Washington Center
04:37PM 36.3797 -78.4892 25° Northeast 463 533 39,000  Level Washington Center
04:38PM 36.4983 -78.4211 25° Northeast 463 533 39,000  Level Washington Center
04:39PM 36.6144 -78.3556 24° Northeast 463 533 39,000  Level Washington Center
04:40PM 36.7181 -78.2972 24° Northeast 458 527 39,000  Level Washington Center
04:41PM 36.8344 -78.2286 25° Northeast 458 527 39,000  Level Washington Center
04:42PM 36.9569 -78.1572 25° Northeast 458 527 39,000  Level Washington Center
04:43PM 37.0761 -78.1483 North 442 509 39,000  Level Washington Center
04:44PM 37.2000 -78.2019 341° North 415 478 39,000  Level Washington Center
04:45PM 37.3119 -78.2397 345° North 415 478 39,000  Level Washington Center
04:46PM 37.4336 -78.2019 14° North 424 488 39,000  Level Washington Center
04:47PM 37.5233 -78.1056 40° Northeast 418 481 39,000  Level Washington Center
04:48PM 37.6278 -77.9989 39° Northeast 452 520 39,000  Level Washington Center
04:49PM 37.7278 -77.8892 41° Northeast 471 542 39,000 -101 Level Washington Center
04:50PM 37.8303 -77.7739 42° Northeast 482 555 38,800 -555 Descending Washington Center
04:51PM 37.9258 -77.6661 42° Northeast 476 548 37,900 -1,240 Descending Washington Center
04:52PM 38.0375 -77.6033 24° Northeast 445 512 36,300 -942 Descending Washington Center
04:53PM 38.1511 -77.5483 21° North 433 498 36,000 -151 Descending Washington Center
04:54PM 38.2667 -77.4906 21° North 433 498 36,000  Level Washington Center
04:55PM 38.3864 -77.4300 22° Northeast 444 511 36,000  Level Washington Center
04:56PM 38.5022 -77.3667 23° Northeast 444 511 36,000  Level Washington Center
04:57PM 38.6197 -77.3056 22° Northeast 449 517 36,000  Level Washington Center
04:58PM 38.7431 -77.2844 North 454 522 36,000  Level Washington Center
04:59PM 38.8525 -77.3483 336° Northwest 416 479 36,000 -198 Level Washington Center
05:00PM 38.9683 -77.4258 333° Northwest 413 475 35,600 -496 Descending Washington Center
05:01PM 39.0886 -77.4583 348° North 426 490 35,000 -298 Descending Washington Center
05:02PM 39.2136 -77.4642 358° North 437 503 35,000  Level Washington Center
05:03PM 39.3428 -77.4594 North 448 516 35,000  Level Washington Center
05:04PM 39.4658 -77.4572 North 448 516 35,000  Level Washington Center
05:06PM 39.6736 -77.4578 360° North 462 532 35,000  Level New York Center
05:07PM 39.7969 -77.4561 North 462 532 35,000  Level New York Center
05:08PM 39.9261 -77.4547 360° North 462 532 35,000  Level New York Center
05:09PM 40.0558 -77.4508 North 462 532 35,000 -800 Level New York Center
05:10PM 40.1853 -77.4469 North 462 532 33,400 -1,500 Descending New York Center
05:11PM 40.3189 -77.4436 North 468 539 32,000 -1,200 Descending New York Center
05:12PM 40.4481 -77.4425 360° North 468 539 31,000 -500 Descending New York Center
05:13PM 40.5819 -77.4361 North 468 539 31,000  Level New York Center
05:14PM 40.7111 -77.4350 360° North 468 539 31,000  Level New York Center
05:15PM 40.8569 -77.4000 10° North 473 544 31,000  Level New York Center
05:16PM 40.9883 -77.3606 13° North 473 544 31,000  Level New York Center
05:17PM 41.1089 -77.3281 11° North 473 544 31,000  Level New York Center
05:18PM 41.2511 -77.2839 13° North 478 550 31,000 -450 Level New York Center
05:19PM 41.3822 -77.2467 12° North 478 550 30,100 -950 Descending New York Center
05:20PM 41.4917 -77.1908 21° North 478 550 29,100 -1,050 Descending New York Center
05:21PM 41.5400 -77.0264 69° East 440 506 28,000 -1,050 Descending New York Center
05:22PM 41.5244 -76.8419 96° East 437 503 27,000 -500 Descending New York Center
05:23PM 41.4842 -76.6500 106° East 450 518 27,000  Level New York Center
05:24PM 41.4431 -76.4664 107° East 481 554 27,000 -100 Level New York Center
05:25PM 41.4058 -76.2836 105° East 498 573 26,800 -1,150 Descending New York Center
05:26PM 41.3675 -76.1200 107° East 509 586 24,700 -2,450 Descending New York Center
05:27PM 41.3294 -75.9458 106° East 509 586 21,900 -2,700 Descending New York Center
05:28PM 41.2911 -75.7717 106° East 500 575 19,300 -2,650 Descending New York Center
05:29PM 41.2439 -75.6025 110° East 461 531 16,600 -2,450 Descending New York Center
05:30PM 41.2033 -75.4783 113° Southeast 413 475 14,400 -2,200 Descending New York Center
05:31PM 41.1583 -75.3456 114° Southeast 400 460 12,200 -2,200 Descending New York Center
05:32PM 41.1153 -75.2189 114° Southeast 371 427 10,000 -1,950 Descending New York Center
05:33PM 41.0778 -75.1089 114° Southeast 322 371 8,300 -1,650 Descending New York Center
05:34PM 41.0419 -75.0078 115° Southeast 313 360 6,700 -1,150 Descending New York Center
05:35PM 41.0417 -74.8947 90° East 300 345 6,000 -800 Descending New York Center
05:36PM 41.0414 -74.7819 90° East 300 345 5,100 -1,000 Descending New York Center
05:37PM 41.0389 -74.6719 92° East 300 345 4,000 -900 Descending New York Center
05:38PM 41.0361 -74.5644 92° East 293 337 3,300 -500 Descending New York Center
05:39PM 41.0350 -74.4708 91° East 288 331 3,000 -150 Descending New York Center
05:40PM 41.0322 -74.3581 92° East 288 331 3,000 -400 Level New York Center
05:41PM 41.0114 -74.2825 110° East 260 299 2,200 -500 Descending New York Center
05:42PM 40.9828 -74.1986 114° Southeast 228 262 2,000 -150 Descending New York Center
05:43PM 40.9575 -74.1369 118° Southeast 201 231 1,900 -250 Descending New York Center
05:44PM 40.9361 -74.0808 117° Southeast 185 213 1,500 -550 Descending New York Center
05:45PM 40.8972 -74.0597 158° South 142 163 800 -650 Descending New York Center
05:46PM 40.8658 -74.0611 182° South 129 148 200 8,600 Descending New York Center
05:47PM 40.8264 -74.0564 175° South 129 148 18,000 17,800 Climbing New York Center

Login

Don't have an account? Register now (free) for customized features, flight alerts, and more!